createdAt,value
2019-06-10T00:01:04.232Z,85.80
2019-06-10T00:04:09.569Z,86.20
2019-06-10T00:07:13.391Z,86.30
2019-06-10T00:10:18.078Z,86.60
2019-06-10T00:13:22.523Z,86.90
2019-06-10T00:16:26.891Z,87.10
2019-06-10T00:19:31.752Z,87.20
2019-06-10T00:22:36.226Z,87.10
2019-06-10T00:25:41.861Z,87.10
2019-06-10T00:28:46.340Z,87.20
2019-06-10T00:31:50.992Z,88.00
2019-06-10T00:34:55.528Z,87.90
2019-06-10T00:38:02.490Z,88.20
2019-06-10T00:41:07.629Z,88.80
2019-06-10T00:44:12.803Z,88.20
2019-06-10T00:47:17.259Z,88.80
2019-06-10T00:50:21.758Z,89.10
2019-06-10T00:53:26.080Z,89.30
2019-06-10T00:56:30.809Z,89.30
2019-06-10T00:59:35.248Z,88.90
2019-06-10T01:02:41.067Z,88.80
2019-06-10T01:05:45.598Z,88.90
2019-06-10T01:08:51.278Z,89.10
2019-06-10T01:11:55.699Z,89.60
2019-06-10T01:15:00.869Z,89.50
2019-06-10T01:18:05.550Z,90.00
2019-06-10T01:21:12.209Z,89.10
2019-06-10T01:24:17.412Z,88.70
2019-06-10T01:27:21.876Z,88.70
2019-06-10T01:30:27.315Z,88.70
2019-06-10T01:33:31.993Z,88.80
2019-06-10T01:36:36.432Z,89.30
2019-06-10T01:39:41.249Z,89.10
2019-06-10T01:42:45.741Z,89.20
2019-06-10T01:45:51.126Z,89.10
2019-06-10T01:48:55.685Z,89.60
2019-06-10T01:52:01.673Z,89.80
2019-06-10T01:55:11.851Z,90.00
2019-06-10T01:58:16.780Z,90.20
2019-06-10T02:01:27.868Z,90.40
2019-06-10T02:04:32.364Z,90.30
2019-06-10T02:07:36.717Z,90.20
2019-06-10T02:10:41.512Z,90.10
2019-06-10T02:13:46.332Z,90.20
2019-06-10T02:16:50.804Z,90.30
2019-06-10T02:19:55.127Z,90.50
2019-06-10T02:23:01.910Z,90.60
2019-06-10T02:26:05.504Z,90.40
2019-06-10T02:29:11.623Z,90.80
2019-06-10T02:32:22.552Z,90.70
2019-06-10T02:35:32.172Z,90.60
2019-06-10T02:38:34.026Z,90.70
2019-06-10T02:41:36.365Z,90.90
2019-06-10T02:44:39.900Z,90.90
2019-06-10T02:47:44.603Z,90.90
2019-06-10T02:51:15.827Z,91.30
2019-06-10T02:54:22.709Z,91.20
2019-06-10T02:57:32.910Z,91.40
2019-06-10T03:00:42.638Z,91.40
2019-06-10T03:03:44.284Z,91.40
2019-06-10T03:06:45.007Z,91.30
2019-06-10T03:09:49.569Z,91.50
2019-06-10T03:12:53.947Z,91.60
2019-06-10T03:16:04.239Z,91.50
2019-06-10T03:19:08.606Z,91.50
2019-06-10T03:22:13.128Z,91.90
2019-06-10T03:25:18.329Z,91.40
2019-06-10T03:28:24.182Z,91.50
2019-06-10T03:31:40.155Z,91.50
2019-06-10T03:34:41.611Z,91.50
2019-06-10T03:37:42.402Z,91.50
2019-06-10T03:40:46.898Z,91.80
2019-06-10T03:43:53.129Z,91.70
2019-06-10T03:46:57.530Z,91.80
2019-06-10T03:50:03.207Z,91.80
2019-06-10T03:53:07.805Z,92.10
2019-06-10T03:56:12.901Z,92.10
2019-06-10T03:59:17.399Z,92.30
2019-06-10T04:02:23.873Z,92.10
2019-06-10T04:05:28.882Z,92.00
2019-06-10T04:08:33.235Z,91.90
2019-06-10T04:11:37.655Z,91.90
2019-06-10T04:14:42.087Z,91.90
2019-06-10T04:17:46.417Z,91.80
2019-06-10T04:20:52.761Z,91.90
2019-06-10T04:23:56.849Z,92.20
2019-06-10T04:27:02.805Z,92.20
2019-06-10T04:30:07.909Z,92.30
2019-06-10T04:33:12.670Z,92.50
2019-06-10T04:36:18.288Z,92.50
2019-06-10T04:39:25.775Z,92.60
2019-06-10T04:42:29.059Z,92.60
2019-06-10T04:45:33.557Z,92.60
2019-06-10T04:48:37.937Z,92.60
2019-06-10T04:51:43.545Z,92.70
2019-06-10T04:54:47.964Z,92.90
2019-06-10T04:57:52.607Z,93.00
2019-06-10T05:00:56.979Z,92.90
2019-06-10T05:04:03.137Z,93.00
2019-06-10T05:07:07.435Z,93.20
2019-06-10T05:10:12.527Z,92.90
2019-06-10T05:13:16.947Z,93.00
2019-06-10T05:16:25.596Z,92.80
2019-06-10T05:19:29.110Z,93.00
2019-06-10T05:22:33.824Z,93.00
2019-06-10T05:25:38.168Z,92.90
2019-06-10T05:28:44.136Z,92.90
2019-06-10T05:31:48.500Z,92.90
2019-06-10T05:34:53.065Z,92.90
2019-06-10T05:37:57.445Z,92.90
2019-06-10T05:41:03.005Z,92.80
2019-06-10T05:44:07.513Z,92.90
2019-06-10T05:47:12.653Z,92.90
2019-06-10T05:50:17.128Z,92.80
2019-06-10T05:53:23.126Z,92.80
2019-06-10T05:56:27.488Z,92.90
2019-06-10T05:59:34.092Z,92.70
2019-06-10T06:02:37.895Z,92.70
2019-06-10T06:05:43.652Z,92.70
2019-06-10T06:08:47.952Z,92.70
2019-06-10T06:11:52.474Z,92.80
2019-06-10T06:14:59.183Z,92.60
2019-06-10T06:18:09.943Z,92.60
2019-06-10T06:21:22.662Z,92.60
2019-06-10T06:24:16.378Z,92.70
2019-06-10T06:27:22.561Z,92.60
2019-06-10T06:30:28.008Z,92.50
2019-06-10T06:33:36.135Z,92.50
2019-06-10T06:36:38.532Z,92.40
2019-06-10T06:39:43.053Z,92.30
2019-06-10T06:42:47.507Z,92.30
2019-06-10T06:45:53.121Z,92.20
2019-06-10T06:48:57.562Z,92.30
2019-06-10T06:52:02.873Z,92.30
2019-06-10T06:55:09.917Z,92.00
2019-06-10T06:58:14.021Z,92.00
2019-06-10T07:01:18.439Z,91.90
2019-06-10T07:04:23.544Z,91.80
2019-06-10T07:07:30.117Z,91.50
2019-06-10T07:10:38.805Z,91.40
2019-06-10T07:13:45.889Z,91.30
2019-06-10T07:16:52.810Z,91.20
2019-06-10T07:19:57.612Z,91.00
2019-06-10T07:23:02.672Z,90.90
2019-06-10T07:26:07.279Z,90.80
2019-06-10T07:29:13.256Z,90.70
2019-06-10T07:32:17.755Z,90.50
2019-06-10T07:35:22.236Z,90.30
2019-06-10T07:38:27.796Z,90.30
2019-06-10T07:41:32.896Z,90.10
2019-06-10T07:44:39.067Z,90.10
2019-06-10T07:47:44.257Z,89.90
2019-06-10T07:50:49.608Z,89.70
2019-06-10T07:53:53.971Z,89.30
2019-06-10T07:56:58.300Z,89.20
2019-06-10T08:00:03.122Z,88.70
2019-06-10T08:03:07.693Z,88.40
2019-06-10T08:06:14.980Z,88.10
2019-06-10T08:09:19.290Z,87.90
2019-06-10T08:12:24.802Z,87.50
2019-06-10T08:15:29.217Z,87.20
2019-06-10T08:18:44.413Z,86.90
2019-06-10T08:21:41.470Z,86.60
2019-06-10T08:24:45.924Z,86.40
2019-06-10T08:27:52.958Z,86.20
2019-06-10T08:30:56.373Z,86.30
2019-06-10T08:34:02.985Z,85.60
2019-06-10T08:37:06.916Z,85.70
2019-06-10T08:40:12.414Z,84.70
2019-06-10T08:43:16.832Z,84.40
2019-06-10T08:46:22.550Z,84.00
2019-06-10T08:49:27.222Z,83.50
2019-06-10T08:52:48.933Z,83.40
2019-06-10T08:55:37.713Z,82.90
2019-06-10T08:59:03.291Z,82.60
2019-06-10T09:02:08.137Z,82.50
2019-06-10T09:05:16.810Z,82.00
2019-06-10T09:08:23.411Z,81.70
2019-06-10T09:11:27.390Z,80.90
2019-06-10T09:14:32.610Z,80.70
2019-06-10T09:17:39.675Z,80.40
2019-06-10T09:20:45.943Z,80.20
2019-06-10T09:23:56.809Z,79.80
2019-06-10T09:26:55.638Z,79.60
2019-06-10T09:29:59.978Z,79.30
2019-06-10T09:33:04.920Z,80.10
2019-06-10T09:36:09.434Z,78.80
2019-06-10T09:39:13.717Z,78.50
2019-06-10T09:42:18.119Z,77.60
2019-06-10T09:45:22.482Z,77.60
2019-06-10T09:48:27.670Z,77.40
2019-06-10T09:51:32.540Z,76.80
2019-06-10T09:54:38.262Z,76.40
2019-06-10T09:57:47.202Z,76.20
2019-06-10T10:00:57.252Z,75.40
2019-06-10T10:04:00.262Z,75.10
2019-06-10T10:07:03.711Z,74.50
2019-06-10T10:10:09.179Z,74.20
2019-06-10T10:13:13.702Z,73.70
2019-06-10T10:16:18.151Z,73.10
2019-06-10T10:19:23.763Z,72.80
2019-06-10T10:22:28.061Z,72.40
2019-06-10T10:25:33.306Z,71.80
2019-06-10T10:28:37.933Z,71.00
2019-06-10T10:31:45.697Z,70.70
2019-06-10T10:34:50.254Z,70.20
2019-06-10T10:37:55.757Z,69.80
2019-06-10T10:41:00.301Z,69.20
2019-06-10T10:44:05.183Z,68.80
2019-06-10T10:47:09.546Z,68.60
2019-06-10T10:50:14.392Z,68.00
2019-06-10T10:53:19.081Z,67.70
2019-06-10T10:56:23.518Z,67.10
2019-06-10T10:59:27.878Z,66.70
2019-06-10T11:02:32.450Z,65.80
2019-06-10T11:05:37.462Z,65.50
2019-06-10T11:08:43.079Z,64.70
2019-06-10T11:11:52.241Z,64.50
2019-06-10T11:15:00.500Z,63.80
2019-06-10T11:18:03.827Z,63.80
2019-06-10T11:21:08.351Z,63.30
2019-06-10T11:24:14.476Z,62.80
2019-06-10T11:27:18.753Z,62.70
2019-06-10T11:30:23.413Z,63.20
2019-06-10T11:33:27.836Z,62.60
2019-06-10T11:36:32.740Z,61.40
2019-06-10T11:39:38.736Z,61.00
2019-06-10T11:42:43.674Z,60.30
2019-06-10T11:45:52.669Z,59.00
2019-06-10T11:48:57.183Z,59.70
2019-06-10T11:52:00.237Z,59.50
2019-06-10T11:55:15.275Z,59.20
2019-06-10T11:58:13.635Z,58.80
2019-06-10T12:01:22.660Z,57.90
2019-06-10T12:04:26.474Z,58.70
2019-06-10T12:07:33.214Z,58.20
2019-06-10T12:10:38.997Z,57.80
2019-06-10T12:13:43.371Z,57.60
2019-06-10T12:17:17.546Z,57.30
2019-06-10T12:19:56.764Z,57.20
2019-06-10T12:23:04.616Z,57.00
2019-06-10T12:26:09.059Z,56.80
2019-06-10T12:29:13.504Z,56.70
2019-06-10T12:32:22.393Z,56.50
2019-06-10T12:35:26.171Z,56.50
2019-06-10T12:38:33.416Z,56.20
2019-06-10T12:41:36.867Z,56.10
2019-06-10T12:44:42.868Z,56.00
2019-06-10T12:47:47.575Z,55.80
2019-06-10T12:50:53.842Z,52.00
2019-06-10T12:53:59.351Z,52.20
2019-06-10T12:57:05.285Z,51.20
2019-06-10T13:00:20.533Z,51.90
2019-06-10T13:03:18.163Z,50.70
2019-06-10T13:06:24.339Z,50.40
2019-06-10T13:09:29.895Z,48.20
2019-06-10T13:12:34.351Z,47.80
2019-06-10T13:15:39.232Z,48.40
2019-06-10T13:18:43.699Z,46.90
2019-06-10T13:21:48.148Z,46.10
2019-06-10T13:24:53.534Z,46.20
2019-06-10T13:28:02.949Z,46.90
2019-06-10T13:31:09.932Z,47.00
2019-06-10T13:34:15.282Z,48.10
2019-06-10T13:37:19.738Z,49.10
2019-06-10T13:40:24.556Z,49.60
2019-06-10T13:43:33.573Z,49.90
2019-06-10T13:46:36.264Z,49.80
2019-06-10T13:49:42.707Z,49.50
2019-06-10T13:52:46.900Z,49.10
2019-06-10T13:56:00.635Z,49.40
2019-06-10T13:58:57.532Z,49.20
2019-06-10T14:02:04.199Z,48.40
2019-06-10T14:05:12.955Z,47.80
2019-06-10T14:08:15.423Z,47.70
2019-06-10T14:11:22.072Z,47.00
2019-06-10T14:14:26.442Z,46.70
2019-06-10T14:17:32.874Z,46.50
2019-06-10T14:20:37.156Z,45.90
2019-06-10T14:23:42.368Z,45.60
2019-06-10T14:26:47.033Z,45.60
2019-06-10T14:29:52.889Z,45.50
2019-06-10T14:32:58.676Z,45.80
2019-06-10T14:36:04.069Z,46.00
2019-06-10T14:39:10.188Z,45.30
2019-06-10T14:42:16.315Z,45.60
2019-06-10T14:45:23.215Z,45.70
2019-06-10T14:48:27.754Z,45.70
2019-06-10T14:51:32.621Z,45.90
2019-06-10T14:54:37.258Z,46.00
2019-06-10T14:57:42.625Z,46.10
2019-06-10T15:00:47.196Z,46.30
2019-06-10T15:03:52.307Z,46.30
2019-06-10T15:06:56.873Z,46.60
2019-06-10T15:10:03.457Z,46.20
2019-06-10T15:13:07.675Z,46.30
2019-06-10T15:16:12.399Z,46.00
2019-06-10T15:19:25.271Z,46.30
2019-06-10T15:22:25.375Z,46.30
2019-06-10T15:25:43.765Z,47.10
2019-06-10T15:28:36.048Z,48.00
2019-06-10T15:31:42.855Z,48.60
2019-06-10T15:34:46.976Z,49.20
2019-06-10T15:37:52.775Z,49.50
2019-06-10T15:40:57.327Z,50.10
2019-06-10T15:44:02.553Z,50.50
2019-06-10T15:47:07.088Z,50.90
2019-06-10T15:50:13.193Z,51.10
2019-06-10T15:53:20.135Z,51.80
2019-06-10T15:56:37.272Z,52.20
2019-06-10T15:59:29.916Z,52.50
2019-06-10T16:02:34.371Z,52.80
2019-06-10T16:05:42.738Z,53.30
2019-06-10T16:08:47.234Z,53.60
2019-06-10T16:11:53.730Z,53.90
2019-06-10T16:14:57.926Z,54.10
2019-06-10T16:18:02.966Z,54.40
2019-06-10T16:21:07.629Z,55.00
2019-06-10T16:24:13.607Z,55.60
2019-06-10T16:27:18.287Z,55.60
2019-06-10T16:30:24.432Z,56.60
2019-06-10T16:33:28.956Z,56.20
2019-06-10T16:36:33.438Z,56.40
2019-06-10T16:39:37.854Z,56.90
2019-06-10T16:42:43.107Z,57.10
2019-06-10T16:45:47.644Z,57.40
2019-06-10T16:48:52.747Z,57.80
2019-06-10T16:51:57.330Z,58.20
2019-06-10T16:55:02.275Z,58.40
2019-06-10T16:58:08.433Z,58.40
2019-06-10T17:01:13.018Z,58.50
2019-06-10T17:04:17.434Z,58.40
2019-06-10T17:07:22.611Z,58.60
2019-06-10T17:10:28.236Z,58.80
2019-06-10T17:13:33.086Z,58.80
2019-06-10T17:16:40.562Z,59.10
2019-06-10T17:19:43.488Z,59.20
2019-06-10T17:22:47.973Z,59.60
2019-06-10T17:25:54.784Z,59.80
2019-06-10T17:28:59.279Z,60.00
2019-06-10T17:32:03.704Z,60.10
2019-06-10T17:35:10.476Z,60.20
2019-06-10T17:38:15.975Z,61.20
2019-06-10T17:41:21.339Z,60.80
2019-06-10T17:44:29.053Z,60.80
2019-06-10T17:47:34.722Z,60.90
2019-06-10T17:50:38.910Z,61.10
2019-06-10T17:53:43.352Z,61.30
2019-06-10T17:56:47.878Z,61.60
2019-06-10T17:59:52.505Z,61.90
2019-06-10T18:02:58.423Z,62.20
2019-06-10T18:06:03.001Z,62.70
2019-06-10T18:09:08.443Z,62.80
2019-06-10T18:12:13.029Z,63.00
2019-06-10T18:15:17.879Z,63.40
2019-06-10T18:18:22.545Z,63.70
2019-06-10T18:21:26.992Z,63.90
2019-06-10T18:24:32.856Z,64.30
2019-06-10T18:27:38.766Z,64.60
2019-06-10T18:30:43.595Z,65.00
2019-06-10T18:33:48.144Z,65.10
2019-06-10T18:36:52.717Z,65.40
2019-06-10T18:39:57.591Z,65.80
2019-06-10T18:43:02.905Z,66.20
2019-06-10T18:46:07.617Z,66.30
2019-06-10T18:49:13.279Z,66.60
2019-06-10T18:52:18.010Z,66.90
2019-06-10T18:55:22.907Z,67.00
2019-06-10T18:58:27.838Z,67.50
2019-06-10T19:01:34.366Z,67.80
2019-06-10T19:04:40.391Z,68.10
2019-06-10T19:07:46.854Z,68.30
2019-06-10T19:10:53.630Z,68.50
2019-06-10T19:14:00.059Z,68.80
2019-06-10T19:17:04.953Z,69.10
2019-06-10T19:20:09.954Z,68.40
2019-06-10T19:23:16.364Z,69.40
2019-06-10T19:26:22.105Z,69.70
2019-06-10T19:29:33.800Z,69.70
2019-06-10T19:32:34.049Z,69.80
2019-06-10T19:35:42.566Z,70.00
2019-06-10T19:38:49.098Z,70.20
2019-06-10T19:41:53.570Z,70.30
2019-06-10T19:44:57.988Z,70.40
2019-06-10T19:48:03.322Z,70.30
2019-06-10T19:51:08.014Z,70.70
2019-06-10T19:54:12.885Z,70.90
2019-06-10T19:57:17.377Z,71.10
2019-06-10T20:00:22.339Z,71.20
2019-06-10T20:03:26.737Z,71.50
2019-06-10T20:06:32.231Z,71.60
2019-06-10T20:09:38.034Z,71.80
2019-06-10T20:12:44.835Z,72.10
2019-06-10T20:15:48.540Z,72.00
2019-06-10T20:18:53.577Z,72.30
2019-06-10T20:21:58.268Z,72.20
2019-06-10T20:25:03.802Z,72.30
2019-06-10T20:28:08.486Z,72.40
2019-06-10T20:31:13.788Z,72.70
2019-06-10T20:34:23.851Z,73.20
2019-06-10T20:37:26.996Z,73.50
2019-06-10T20:40:32.150Z,73.60
2019-06-10T20:43:37.500Z,73.90
2019-06-10T20:46:43.457Z,74.30
2019-06-10T20:49:51.396Z,74.30
2019-06-10T20:52:54.004Z,74.50
2019-06-10T20:55:58.765Z,74.60
2019-06-10T20:59:03.350Z,74.70
2019-06-10T21:02:07.808Z,75.10
2019-06-10T21:05:13.395Z,75.20
2019-06-10T21:08:18.167Z,75.20
2019-06-10T21:11:23.154Z,75.40
2019-06-10T21:14:27.755Z,75.60
2019-06-10T21:17:33.288Z,75.70
2019-06-10T21:20:41.327Z,76.20
2019-06-10T21:23:47.545Z,76.10
2019-06-10T21:26:54.654Z,76.40
2019-06-10T21:29:58.153Z,76.70
2019-06-10T21:33:03.467Z,76.70
2019-06-10T21:36:08.213Z,76.80
2019-06-10T21:39:12.728Z,76.90
2019-06-10T21:42:17.092Z,77.40
2019-06-10T21:45:22.838Z,78.10
2019-06-10T21:48:27.378Z,78.00
2019-06-10T21:51:34.593Z,78.10
2019-06-10T21:54:38.874Z,78.30
2019-06-10T21:57:44.557Z,78.40
2019-06-10T22:01:03.257Z,78.50
2019-06-10T22:04:04.173Z,78.90
2019-06-10T22:07:07.815Z,79.40
2019-06-10T22:10:13.887Z,79.30
2019-06-10T22:13:18.928Z,79.70
2019-06-10T22:16:23.676Z,79.50
2019-06-10T22:19:28.697Z,79.70
2019-06-10T22:22:33.613Z,79.80
2019-06-10T22:25:38.601Z,80.50
2019-06-10T22:28:43.464Z,80.10
2019-06-10T22:31:49.251Z,80.30
2019-06-10T22:34:55.520Z,80.50
2019-06-10T22:38:02.555Z,80.70
2019-06-10T22:41:07.044Z,81.00
2019-06-10T22:44:12.746Z,81.10
2019-06-10T22:47:17.716Z,81.10
2019-06-10T22:50:22.960Z,81.20
2019-06-10T22:53:27.931Z,81.60
2019-06-10T22:56:32.778Z,82.00
2019-06-10T22:59:38.125Z,81.80
2019-06-10T23:02:43.873Z,81.80
2019-06-10T23:05:50.061Z,82.20
2019-06-10T23:08:56.585Z,82.20
2019-06-10T23:12:02.918Z,82.40
2019-06-10T23:15:07.923Z,82.40
2019-06-10T23:18:12.952Z,82.70
2019-06-10T23:21:18.984Z,83.80
2019-06-10T23:24:23.797Z,83.10
2019-06-10T23:27:28.626Z,83.20
2019-06-10T23:30:35.100Z,83.30
2019-06-10T23:33:42.564Z,83.30
2019-06-10T23:36:47.601Z,83.30
2019-06-10T23:39:54.712Z,83.30
2019-06-10T23:43:03.892Z,83.40
2019-06-10T23:46:08.787Z,83.50
2019-06-10T23:49:13.609Z,83.50
2019-06-10T23:52:18.369Z,83.60
2019-06-10T23:55:24.311Z,83.80
2019-06-10T23:58:28.887Z,83.80
